createdAt,value
2023-02-19T00:01:53.539Z,60.98
2023-02-19T00:04:23.689Z,60.95
2023-02-19T00:06:52.509Z,60.94
2023-02-19T00:09:22.503Z,60.89
2023-02-19T00:11:50.923Z,60.88
2023-02-19T00:14:21.927Z,60.83
2023-02-19T00:16:50.549Z,61.02
2023-02-19T00:19:21.125Z,61.10
2023-02-19T00:21:51.853Z,61.17
2023-02-19T00:24:20.730Z,61.06
2023-02-19T00:26:50.631Z,60.80
2023-02-19T00:29:20.928Z,60.97
2023-02-19T00:31:49.814Z,60.80
2023-02-19T00:34:18.273Z,61.04
2023-02-19T00:36:46.659Z,60.77
2023-02-19T00:39:18.305Z,61.05
2023-02-19T00:41:46.924Z,60.63
2023-02-19T00:44:17.289Z,61.12
2023-02-19T00:46:47.691Z,60.92
2023-02-19T00:49:19.315Z,60.87
2023-02-19T00:51:48.244Z,60.67
2023-02-19T00:54:17.279Z,60.82
2023-02-19T00:56:45.752Z,60.58
2023-02-19T00:59:14.088Z,60.68
2023-02-19T01:01:45.402Z,60.53
2023-02-19T01:04:15.010Z,60.29
2023-02-19T01:06:43.379Z,60.27
2023-02-19T01:09:11.894Z,60.33
2023-02-19T01:11:40.233Z,60.27
2023-02-19T01:14:08.666Z,60.25
2023-02-19T01:16:37.196Z,60.22
2023-02-19T01:19:07.255Z,60.40
2023-02-19T01:21:35.596Z,60.14
2023-02-19T01:24:04.001Z,60.08
2023-02-19T01:26:34.113Z,60.27
2023-02-19T01:29:03.170Z,60.12
2023-02-19T01:31:31.695Z,59.91
2023-02-19T01:34:01.945Z,59.82
2023-02-19T01:36:34.338Z,59.97
2023-02-19T01:39:04.919Z,59.88
2023-02-19T01:41:37.037Z,60.01
2023-02-19T01:44:08.045Z,59.77
2023-02-19T01:46:38.264Z,59.72
2023-02-19T01:49:11.781Z,59.68
2023-02-19T01:51:46.003Z,59.79
2023-02-19T01:54:17.185Z,59.62
2023-02-19T01:56:48.650Z,59.44
2023-02-19T01:59:19.314Z,59.66
2023-02-19T02:01:47.966Z,59.66
2023-02-19T02:04:18.918Z,59.76
2023-02-19T02:06:52.584Z,59.93
2023-02-19T02:09:40.525Z,59.77
2023-02-19T02:12:09.129Z,60.13
2023-02-19T02:14:41.285Z,59.97
2023-02-19T02:17:16.721Z,59.81
2023-02-19T02:20:11.446Z,59.96
2023-02-19T02:22:45.694Z,60.13
2023-02-19T02:25:45.217Z,60.41
2023-02-19T02:28:33.185Z,60.19
2023-02-19T02:31:07.933Z,60.35
2023-02-19T02:33:41.062Z,60.11
2023-02-19T02:36:16.383Z,60.15
2023-02-19T02:38:47.147Z,60.49
2023-02-19T02:41:16.517Z,60.33
2023-02-19T02:43:44.859Z,60.42
2023-02-19T02:46:21.006Z,60.38
2023-02-19T02:48:54.057Z,60.42
2023-02-19T02:51:26.716Z,60.26
2023-02-19T02:54:15.707Z,60.29
2023-02-19T02:56:46.147Z,60.23
2023-02-19T02:59:16.805Z,60.37
2023-02-19T03:02:08.119Z,60.69
2023-02-19T03:05:03.188Z,60.69
2023-02-19T03:07:38.101Z,60.63
2023-02-19T03:10:12.992Z,60.61
2023-02-19T03:13:03.646Z,60.80
2023-02-19T03:15:56.272Z,61.06
2023-02-19T03:18:53.420Z,61.02
2023-02-19T03:21:23.222Z,61.34
2023-02-19T03:24:10.290Z,61.53
2023-02-19T03:26:42.388Z,61.74
2023-02-19T03:29:25.967Z,61.47
2023-02-19T03:31:58.335Z,61.78
2023-02-19T03:34:33.614Z,61.83
2023-02-19T03:37:07.308Z,61.48
2023-02-19T03:39:44.282Z,61.51
2023-02-19T03:42:21.290Z,61.82
2023-02-19T03:45:02.561Z,61.59
2023-02-19T03:47:34.725Z,61.60
2023-02-19T03:50:15.086Z,61.54
2023-02-19T03:52:52.760Z,61.66
2023-02-19T03:55:27.717Z,61.48
2023-02-19T03:58:03.872Z,61.48
2023-02-19T04:00:37.962Z,61.50
2023-02-19T04:03:13.939Z,61.31
2023-02-19T04:05:48.366Z,61.37
2023-02-19T04:08:19.847Z,61.71
2023-02-19T04:10:48.740Z,61.59
2023-02-19T04:13:20.742Z,61.59
2023-02-19T04:15:51.800Z,61.33
2023-02-19T04:18:25.092Z,61.63
2023-02-19T04:20:55.081Z,61.59
2023-02-19T04:23:28.880Z,61.91
2023-02-19T04:26:01.060Z,62.11
2023-02-19T04:28:30.035Z,62.20
2023-02-19T04:30:58.403Z,62.39
2023-02-19T04:33:26.899Z,62.62
2023-02-19T04:35:56.566Z,62.55
2023-02-19T04:38:24.908Z,62.59
2023-02-19T04:40:53.225Z,62.87
2023-02-19T04:43:21.655Z,63.56
2023-02-19T04:45:50.131Z,64.04
2023-02-19T04:48:18.502Z,64.50
2023-02-19T04:50:47.492Z,64.52
2023-02-19T04:53:17.205Z,65.21
2023-02-19T04:55:46.877Z,65.38
2023-02-19T04:58:15.671Z,65.36
2023-02-19T05:00:43.990Z,65.57
2023-02-19T05:03:12.458Z,66.26
2023-02-19T05:05:40.834Z,66.25
2023-02-19T05:08:09.195Z,66.33
2023-02-19T05:10:38.854Z,66.77
2023-02-19T05:13:07.225Z,67.26
2023-02-19T05:15:35.601Z,67.08
2023-02-19T05:18:12.313Z,67.70
2023-02-19T05:20:40.646Z,68.01
2023-02-19T05:23:08.972Z,68.86
2023-02-19T05:25:38.688Z,69.04
2023-02-19T05:28:17.926Z,69.27
2023-02-19T05:30:50.867Z,69.43
2023-02-19T05:33:21.331Z,70.14
2023-02-19T05:35:51.574Z,70.26
2023-02-19T05:38:20.857Z,70.31
2023-02-19T05:40:50.976Z,70.54
2023-02-19T05:43:19.656Z,70.33
2023-02-19T05:45:48.379Z,70.99
2023-02-19T05:48:16.966Z,70.83
2023-02-19T05:50:45.320Z,71.07
2023-02-19T05:53:13.713Z,71.18
2023-02-19T05:55:42.278Z,71.31
2023-02-19T05:58:11.941Z,71.02
2023-02-19T06:00:40.327Z,70.98
2023-02-19T06:03:08.776Z,71.41
2023-02-19T06:05:38.498Z,70.91
2023-02-19T06:08:07.078Z,71.50
2023-02-19T06:10:36.621Z,70.97
2023-02-19T06:13:04.958Z,71.52
2023-02-19T06:15:34.724Z,71.41
2023-02-19T06:18:03.295Z,71.99
2023-02-19T06:20:31.667Z,71.80
2023-02-19T06:23:01.415Z,71.96
2023-02-19T06:25:29.801Z,71.97
2023-02-19T06:27:58.187Z,72.16
2023-02-19T06:30:26.746Z,72.29
2023-02-19T06:33:00.009Z,72.10
2023-02-19T06:35:28.383Z,72.77
2023-02-19T06:37:56.676Z,72.50
2023-02-19T06:40:24.988Z,72.71
2023-02-19T06:42:53.363Z,72.37
2023-02-19T06:45:21.723Z,72.66
2023-02-19T06:47:51.348Z,72.49
2023-02-19T06:50:21.143Z,71.97
2023-02-19T06:52:49.512Z,72.25
2023-02-19T06:55:18.106Z,71.89
2023-02-19T06:57:46.413Z,71.90
2023-02-19T07:00:15.413Z,71.83
2023-02-19T07:02:43.869Z,72.53
2023-02-19T07:05:12.177Z,72.16
2023-02-19T07:07:42.133Z,72.51
2023-02-19T07:10:10.796Z,71.99
2023-02-19T07:12:39.274Z,72.26
2023-02-19T07:15:08.373Z,72.38
2023-02-19T07:17:37.202Z,71.87
2023-02-19T07:20:06.103Z,71.74
2023-02-19T07:22:34.410Z,72.04
2023-02-19T07:25:04.237Z,71.54
2023-02-19T07:27:35.441Z,71.85
2023-02-19T07:30:03.927Z,71.79
2023-02-19T07:32:32.316Z,71.79
2023-02-19T07:35:00.649Z,71.81
2023-02-19T07:37:29.039Z,71.53
2023-02-19T07:39:57.449Z,72.03
2023-02-19T07:42:27.264Z,71.19
2023-02-19T07:44:55.640Z,70.74
2023-02-19T07:47:23.993Z,70.79
2023-02-19T07:49:52.271Z,70.64
2023-02-19T07:52:20.695Z,70.99
2023-02-19T07:54:48.981Z,70.90
2023-02-19T07:57:17.293Z,70.60
2023-02-19T07:59:47.105Z,70.71
2023-02-19T08:02:35.322Z,70.60
2023-02-19T08:05:03.991Z,70.22
2023-02-19T08:07:33.609Z,70.72
2023-02-19T08:10:16.269Z,70.63
2023-02-19T08:13:01.877Z,70.35
2023-02-19T08:15:31.638Z,70.64
2023-02-19T08:17:59.908Z,69.95
2023-02-19T08:20:28.194Z,70.04
2023-02-19T08:23:04.259Z,70.37
2023-02-19T08:25:32.682Z,70.26
2023-02-19T08:28:01.618Z,70.38
2023-02-19T08:30:32.940Z,70.16
2023-02-19T08:33:02.542Z,69.78
2023-02-19T08:35:31.188Z,70.08
2023-02-19T08:38:02.637Z,69.29
2023-02-19T08:40:31.174Z,69.70
2023-02-19T08:43:07.274Z,68.90
2023-02-19T08:45:38.332Z,68.86
2023-02-19T08:48:07.226Z,69.15
2023-02-19T08:50:36.163Z,68.92
2023-02-19T08:53:06.024Z,68.74
2023-02-19T08:55:34.792Z,68.46
2023-02-19T08:58:03.311Z,68.33
2023-02-19T09:00:31.748Z,68.37
2023-02-19T09:03:01.898Z,68.39
2023-02-19T09:05:30.428Z,68.35
2023-02-19T09:07:58.769Z,67.92
2023-02-19T09:10:27.168Z,68.25
2023-02-19T09:12:55.464Z,68.00
2023-02-19T09:15:23.823Z,67.72
2023-02-19T09:17:53.276Z,67.70
2023-02-19T09:20:23.124Z,67.18
2023-02-19T09:22:51.762Z,67.33
2023-02-19T09:25:20.135Z,67.05
2023-02-19T09:27:48.872Z,66.98
2023-02-19T09:30:17.433Z,66.86
2023-02-19T09:32:45.816Z,66.67
2023-02-19T09:35:14.314Z,66.18
2023-02-19T09:37:44.244Z,66.44
2023-02-19T09:40:13.432Z,65.93
2023-02-19T09:42:43.913Z,65.71
2023-02-19T09:45:20.557Z,65.48
2023-02-19T09:47:49.593Z,65.10
2023-02-19T09:50:22.260Z,64.68
2023-02-19T09:52:55.883Z,64.48
2023-02-19T09:55:32.490Z,64.09
2023-02-19T09:58:04.007Z,63.75
2023-02-19T10:00:35.840Z,63.70
2023-02-19T10:03:07.195Z,63.43
2023-02-19T10:05:36.216Z,63.48
2023-02-19T10:08:10.530Z,63.19
2023-02-19T10:10:39.460Z,63.04
2023-02-19T10:13:16.155Z,63.10
2023-02-19T10:15:48.980Z,62.91
2023-02-19T10:18:19.503Z,62.80
2023-02-19T10:20:48.680Z,62.79
2023-02-19T10:23:18.826Z,62.66
2023-02-19T10:25:51.221Z,62.49
2023-02-19T10:28:22.367Z,62.43
2023-02-19T10:30:54.934Z,63.36
2023-02-19T10:33:23.923Z,64.85
2023-02-19T10:35:56.224Z,66.40
2023-02-19T10:38:29.535Z,67.45
2023-02-19T10:41:02.128Z,67.89
2023-02-19T10:43:33.838Z,69.26
2023-02-19T10:46:06.549Z,69.66
2023-02-19T10:48:38.321Z,70.33
2023-02-19T10:51:10.623Z,70.93
2023-02-19T10:53:46.787Z,71.05
2023-02-19T10:56:17.382Z,71.34
2023-02-19T10:58:47.226Z,71.94
2023-02-19T11:01:22.404Z,72.20
2023-02-19T11:03:51.883Z,72.30
2023-02-19T11:06:22.691Z,72.24
2023-02-19T11:08:55.113Z,72.30
2023-02-19T11:11:26.368Z,72.15
2023-02-19T11:13:56.629Z,72.71
2023-02-19T11:16:25.685Z,73.19
2023-02-19T11:18:58.261Z,72.64
2023-02-19T11:21:32.902Z,73.06
2023-02-19T11:24:04.709Z,73.84
2023-02-19T11:26:38.143Z,73.72
2023-02-19T11:29:20.077Z,73.65
2023-02-19T11:31:48.472Z,73.85
2023-02-19T11:34:31.078Z,74.53
2023-02-19T11:37:14.514Z,74.46
2023-02-19T11:39:46.169Z,74.29
2023-02-19T11:42:30.128Z,73.82
2023-02-19T11:45:19.720Z,74.08
2023-02-19T11:48:07.002Z,74.47
2023-02-19T11:50:50.743Z,74.52
2023-02-19T11:53:26.880Z,73.67
2023-02-19T11:56:12.221Z,74.26
2023-02-19T11:59:03.930Z,74.74
2023-02-19T12:01:54.530Z,73.87
2023-02-19T12:04:52.665Z,74.33
2023-02-19T12:07:37.157Z,74.60
2023-02-19T12:10:15.798Z,74.33
2023-02-19T12:12:57.332Z,74.85
2023-02-19T12:15:40.899Z,74.55
2023-02-19T12:18:40.024Z,75.13
2023-02-19T12:21:22.354Z,74.76
2023-02-19T12:24:07.921Z,75.26
2023-02-19T12:26:42.281Z,74.93
2023-02-19T12:29:36.846Z,75.06
2023-02-19T12:32:29.991Z,75.10
2023-02-19T12:35:33.184Z,75.36
2023-02-19T12:38:17.038Z,74.84
2023-02-19T12:40:59.346Z,75.69
2023-02-19T12:43:27.976Z,75.86
2023-02-19T12:46:02.506Z,76.36
2023-02-19T12:48:36.419Z,76.02
2023-02-19T12:51:08.095Z,75.85
2023-02-19T12:53:42.891Z,75.72
2023-02-19T12:56:18.547Z,76.37
2023-02-19T12:58:51.709Z,76.16
2023-02-19T13:01:27.814Z,76.78
2023-02-19T13:04:15.248Z,76.23
2023-02-19T13:06:47.971Z,76.76
2023-02-19T13:09:22.428Z,76.84
2023-02-19T13:11:56.456Z,76.20
2023-02-19T13:14:29.998Z,76.32
2023-02-19T13:17:04.044Z,76.22
2023-02-19T13:19:33.854Z,76.10
2023-02-19T13:22:39.861Z,75.99
2023-02-19T13:25:11.248Z,75.93
2023-02-19T13:28:16.461Z,76.08
2023-02-19T13:31:01.633Z,76.39
2023-02-19T13:33:45.005Z,75.85
2023-02-19T13:36:16.782Z,76.11
2023-02-19T13:38:47.377Z,75.57
2023-02-19T13:41:28.914Z,76.25
2023-02-19T13:44:00.504Z,75.52
2023-02-19T13:46:37.798Z,75.43
2023-02-19T13:49:27.176Z,75.87
2023-02-19T13:51:56.401Z,76.00
2023-02-19T13:54:27.656Z,75.80
2023-02-19T13:57:30.090Z,75.80
2023-02-19T14:00:00.193Z,76.28
2023-02-19T14:02:34.220Z,76.05
2023-02-19T14:05:07.610Z,75.66
2023-02-19T14:07:57.959Z,75.65
2023-02-19T14:11:02.534Z,76.14
2023-02-19T14:14:11.616Z,75.57
2023-02-19T14:17:01.240Z,76.37
2023-02-19T14:19:51.588Z,76.48
2023-02-19T14:23:02.675Z,75.91
2023-02-19T14:25:44.804Z,75.81
2023-02-19T14:28:37.065Z,75.95
2023-02-19T14:31:18.789Z,76.31
2023-02-19T14:33:51.010Z,75.66
2023-02-19T14:36:29.729Z,75.55
2023-02-19T14:39:01.842Z,75.54
2023-02-19T14:41:34.640Z,75.39
2023-02-19T14:44:14.850Z,75.36
2023-02-19T14:46:50.181Z,74.77
2023-02-19T14:49:24.627Z,75.05
2023-02-19T14:51:59.334Z,75.25
2023-02-19T14:54:41.633Z,75.89
2023-02-19T14:57:18.859Z,75.84
2023-02-19T14:59:57.510Z,75.84
2023-02-19T15:02:27.132Z,76.24
2023-02-19T15:04:56.375Z,76.21
2023-02-19T15:07:27.721Z,75.89
2023-02-19T15:10:05.059Z,75.61
2023-02-19T15:12:42.521Z,75.04
2023-02-19T15:15:18.482Z,75.76
2023-02-19T15:17:51.977Z,75.53
2023-02-19T15:20:23.995Z,75.70
2023-02-19T15:22:54.239Z,75.92
2023-02-19T15:25:24.834Z,75.68
2023-02-19T15:27:54.759Z,75.23
2023-02-19T15:30:25.084Z,76.02
2023-02-19T15:32:54.481Z,75.70
2023-02-19T15:35:25.195Z,75.47
2023-02-19T15:37:55.686Z,75.85
2023-02-19T15:40:27.744Z,75.79
2023-02-19T15:42:58.784Z,76.15
2023-02-19T15:45:31.835Z,76.31
2023-02-19T15:48:05.250Z,76.44
2023-02-19T15:50:37.040Z,76.94
2023-02-19T15:53:10.162Z,77.01
2023-02-19T15:55:42.742Z,76.99
2023-02-19T15:58:20.587Z,76.75
2023-02-19T16:00:53.236Z,76.87
2023-02-19T16:03:23.950Z,76.98
2023-02-19T16:06:03.652Z,77.35
2023-02-19T16:08:33.411Z,77.29
2023-02-19T16:11:03.219Z,77.02
2023-02-19T16:13:34.517Z,77.29
2023-02-19T16:16:16.094Z,76.94
2023-02-19T16:18:47.392Z,76.44
2023-02-19T16:21:17.808Z,76.77
2023-02-19T16:23:49.064Z,77.06
2023-02-19T16:26:18.438Z,77.09
2023-02-19T16:28:52.647Z,76.41
2023-02-19T16:31:23.503Z,77.20
2023-02-19T16:33:52.170Z,76.86
2023-02-19T16:36:37.933Z,76.49
2023-02-19T16:39:21.133Z,77.09
2023-02-19T16:42:22.634Z,76.83
2023-02-19T16:44:52.365Z,76.70
2023-02-19T16:47:33.138Z,76.87
2023-02-19T16:50:03.778Z,76.84
2023-02-19T16:52:33.679Z,76.48
2023-02-19T16:55:02.096Z,76.42
2023-02-19T16:57:30.530Z,76.76
2023-02-19T17:00:00.389Z,76.74
2023-02-19T17:02:28.850Z,76.86
2023-02-19T17:04:57.331Z,76.85
2023-02-19T17:07:27.476Z,76.70
2023-02-19T17:09:55.960Z,76.90
2023-02-19T17:12:25.375Z,76.68
2023-02-19T17:14:53.794Z,76.34
2023-02-19T17:17:23.484Z,76.37
2023-02-19T17:19:51.817Z,76.15
2023-02-19T17:22:20.242Z,76.25
2023-02-19T17:24:48.574Z,76.40
2023-02-19T17:27:16.925Z,76.57
2023-02-19T17:29:45.440Z,76.00
2023-02-19T17:32:14.725Z,76.01
2023-02-19T17:34:44.774Z,76.11
2023-02-19T17:37:13.127Z,76.02
2023-02-19T17:39:41.467Z,75.79
2023-02-19T17:42:09.850Z,76.23
2023-02-19T17:44:38.201Z,75.87
2023-02-19T17:47:06.802Z,75.97
2023-02-19T17:49:36.365Z,76.17
2023-02-19T17:52:06.655Z,75.91
2023-02-19T17:54:35.328Z,76.18
2023-02-19T17:57:03.752Z,75.89
2023-02-19T17:59:32.349Z,75.52
2023-02-19T18:02:01.982Z,75.91
2023-02-19T18:04:30.392Z,76.10
2023-02-19T18:06:58.729Z,75.96
2023-02-19T18:09:28.517Z,76.00
2023-02-19T18:11:57.037Z,75.54
2023-02-19T18:14:25.413Z,75.94
2023-02-19T18:16:53.743Z,75.91
2023-02-19T18:19:22.914Z,76.22
2023-02-19T18:21:51.290Z,76.01
2023-02-19T18:24:20.253Z,76.13
2023-02-19T18:26:50.089Z,76.00
2023-02-19T18:29:19.946Z,75.94
2023-02-19T18:31:48.550Z,75.74
2023-02-19T18:34:19.319Z,75.64
2023-02-19T18:36:48.009Z,75.17
2023-02-19T18:39:16.769Z,75.42
2023-02-19T18:41:49.951Z,75.65
2023-02-19T18:44:20.111Z,75.42
2023-02-19T18:46:48.538Z,75.68
2023-02-19T18:49:17.289Z,75.37
2023-02-19T18:51:45.630Z,75.42
2023-02-19T18:54:14.249Z,75.45
2023-02-19T18:56:44.172Z,75.39
2023-02-19T18:59:14.636Z,75.43
2023-02-19T19:01:43.195Z,75.49
2023-02-19T19:04:11.901Z,75.23
2023-02-19T19:06:40.297Z,74.37
2023-02-19T19:09:08.742Z,74.70
2023-02-19T19:11:40.508Z,74.43
2023-02-19T19:14:09.440Z,74.41
2023-02-19T19:16:39.186Z,73.79
2023-02-19T19:19:07.531Z,74.15
2023-02-19T19:21:36.194Z,73.83
2023-02-19T19:24:05.380Z,74.35
2023-02-19T19:26:33.850Z,73.79
2023-02-19T19:29:02.315Z,73.74
2023-02-19T19:31:36.243Z,73.91
2023-02-19T19:34:05.962Z,73.83
2023-02-19T19:36:34.767Z,73.73
2023-02-19T19:39:04.081Z,73.69
2023-02-19T19:41:32.570Z,73.87
2023-02-19T19:44:03.627Z,73.62
2023-02-19T19:46:32.337Z,73.74
2023-02-19T19:49:00.847Z,73.77
2023-02-19T19:51:34.504Z,73.66
2023-02-19T19:54:04.188Z,73.73
2023-02-19T19:56:32.751Z,73.42
2023-02-19T19:59:01.803Z,73.08
2023-02-19T20:01:30.475Z,73.60
2023-02-19T20:03:58.855Z,73.34
2023-02-19T20:06:28.652Z,73.40
2023-02-19T20:08:59.592Z,73.36
2023-02-19T20:11:28.069Z,73.73
2023-02-19T20:13:56.466Z,73.61
2023-02-19T20:16:26.266Z,73.18
2023-02-19T20:18:55.282Z,73.31
2023-02-19T20:21:23.841Z,72.79
2023-02-19T20:23:52.153Z,72.99
2023-02-19T20:26:25.966Z,73.08
2023-02-19T20:28:54.650Z,72.83
2023-02-19T20:31:23.770Z,72.91
2023-02-19T20:33:52.732Z,72.80
2023-02-19T20:36:21.320Z,72.88
2023-02-19T20:38:50.921Z,73.08
2023-02-19T20:41:19.298Z,73.05
2023-02-19T20:43:49.070Z,72.73
2023-02-19T20:46:17.647Z,72.22
2023-02-19T20:48:46.130Z,72.32
2023-02-19T20:51:14.460Z,72.61
2023-02-19T20:53:43.663Z,72.34
2023-02-19T20:56:12.671Z,72.25
2023-02-19T20:58:50.992Z,72.58
2023-02-19T21:01:26.836Z,72.39
2023-02-19T21:03:55.366Z,72.12
2023-02-19T21:06:24.631Z,72.27
2023-02-19T21:08:53.001Z,72.10
2023-02-19T21:11:21.339Z,72.22
2023-02-19T21:13:51.260Z,72.05
2023-02-19T21:16:19.696Z,72.11
2023-02-19T21:18:48.063Z,72.11
2023-02-19T21:21:20.103Z,72.13
2023-02-19T21:23:48.501Z,72.15
2023-02-19T21:26:16.868Z,72.27
2023-02-19T21:28:45.222Z,71.63
2023-02-19T21:31:15.050Z,72.17
2023-02-19T21:33:43.378Z,72.29
2023-02-19T21:36:12.161Z,72.36
2023-02-19T21:38:40.742Z,71.68
2023-02-19T21:41:09.016Z,72.31
2023-02-19T21:43:37.397Z,72.50
2023-02-19T21:46:06.114Z,71.89
2023-02-19T21:48:35.850Z,72.37
2023-02-19T21:51:05.021Z,72.05
2023-02-19T21:53:33.329Z,72.16
2023-02-19T21:56:01.904Z,72.17
2023-02-19T21:58:30.282Z,72.01
2023-02-19T22:00:59.024Z,71.67
2023-02-19T22:03:27.448Z,72.16
2023-02-19T22:05:57.315Z,72.33
2023-02-19T22:08:26.096Z,71.57
2023-02-19T22:10:54.484Z,71.88
2023-02-19T22:13:22.868Z,72.29
2023-02-19T22:15:51.154Z,71.93
2023-02-19T22:18:19.454Z,71.65
2023-02-19T22:20:47.891Z,71.58
2023-02-19T22:23:17.586Z,72.18
2023-02-19T22:25:45.941Z,71.74
2023-02-19T22:28:14.385Z,72.32
2023-02-19T22:30:43.168Z,71.61
2023-02-19T22:33:11.557Z,72.31
2023-02-19T22:35:40.072Z,71.92
2023-02-19T22:38:08.399Z,72.14
2023-02-19T22:40:38.154Z,72.02
2023-02-19T22:43:06.545Z,72.02
2023-02-19T22:45:34.915Z,72.02
2023-02-19T22:48:03.269Z,71.77
2023-02-19T22:50:31.776Z,72.08
2023-02-19T22:53:00.291Z,71.58
2023-02-19T22:55:28.635Z,72.04
2023-02-19T22:57:58.405Z,72.07
2023-02-19T23:00:27.700Z,72.12
2023-02-19T23:02:56.014Z,72.03
2023-02-19T23:05:25.509Z,71.62
2023-02-19T23:07:53.897Z,71.34
2023-02-19T23:10:22.279Z,71.85
2023-02-19T23:12:50.617Z,71.58
2023-02-19T23:15:20.477Z,71.86
2023-02-19T23:17:48.820Z,71.50
2023-02-19T23:20:17.314Z,71.45
2023-02-19T23:22:45.660Z,71.42
2023-02-19T23:25:14.064Z,71.49
2023-02-19T23:27:42.499Z,71.17
2023-02-19T23:30:14.258Z,71.68
2023-02-19T23:32:44.035Z,71.39
2023-02-19T23:35:12.585Z,71.53
2023-02-19T23:37:40.933Z,71.67
2023-02-19T23:40:10.350Z,71.64
2023-02-19T23:42:38.695Z,71.35
2023-02-19T23:45:07.439Z,71.49
2023-02-19T23:47:35.856Z,71.69
2023-02-19T23:50:06.246Z,71.72
2023-02-19T23:52:35.461Z,71.68
2023-02-19T23:55:04.013Z,71.39
2023-02-19T23:57:32.302Z,71.01
